sensor_id;sensor_type;location;lat;lon;timestamp;pressure;altitude;pressure_sealevel;temperature;humidity
21401;BME280;18038;50.166;18.908;2023-10-08T00:00:35;97676.16;;;15.14;64.61
21401;BME280;18038;50.166;18.908;2023-10-08T00:03:50;97692.88;;;15.16;64.88
21401;BME280;18038;50.166;18.908;2023-10-08T00:07:04;97701.28;;;15.19;64.72
21401;BME280;18038;50.166;18.908;2023-10-08T00:10:14;97701.75;;;15.16;67.17
21401;BME280;18038;50.166;18.908;2023-10-08T00:13:26;97692.84;;;15.04;68.50
21401;BME280;18038;50.166;18.908;2023-10-08T00:16:34;97706.94;;;14.87;71.51
21401;BME280;18038;50.166;18.908;2023-10-08T00:19:43;97696.22;;;14.57;74.86
21401;BME280;18038;50.166;18.908;2023-10-08T00:22:52;97707.78;;;14.28;76.85
21401;BME280;18038;50.166;18.908;2023-10-08T00:26:01;97705.03;;;13.97;79.80
21401;BME280;18038;50.166;18.908;2023-10-08T00:29:14;97708.13;;;13.57;82.13
21401;BME280;18038;50.166;18.908;2023-10-08T00:32:25;97701.69;;;13.40;83.90
21401;BME280;18038;50.166;18.908;2023-10-08T00:35:37;97702.78;;;13.32;84.89
21401;BME280;18038;50.166;18.908;2023-10-08T00:38:46;97703.81;;;13.31;86.33
21401;BME280;18038;50.166;18.908;2023-10-08T00:41:58;97701.50;;;13.17;86.16
21401;BME280;18038;50.166;18.908;2023-10-08T00:45:11;97708.63;;;12.98;86.58
21401;BME280;18038;50.166;18.908;2023-10-08T00:48:21;97711.97;;;12.93;86.73
21401;BME280;18038;50.166;18.908;2023-10-08T00:51:32;97707.72;;;12.85;86.96
21401;BME280;18038;50.166;18.908;2023-10-08T00:54:45;97702.41;;;12.72;87.70
21401;BME280;18038;50.166;18.908;2023-10-08T00:58:02;97708.47;;;12.61;88.25
21401;BME280;18038;50.166;18.908;2023-10-08T01:01:23;97708.69;;;12.53;89.58
21401;BME280;18038;50.166;18.908;2023-10-08T01:04:31;97699.88;;;12.45;89.10
21401;BME280;18038;50.166;18.908;2023-10-08T01:07:46;97691.22;;;12.50;89.59
21401;BME280;18038;50.166;18.908;2023-10-08T01:10:55;97690.78;;;12.53;89.07
21401;BME280;18038;50.166;18.908;2023-10-08T01:14:06;97695.09;;;12.54;89.32
21401;BME280;18038;50.166;18.908;2023-10-08T01:17:17;97689.94;;;12.53;89.72
21401;BME280;18038;50.166;18.908;2023-10-08T01:20:30;97683.31;;;12.55;89.44
21401;BME280;18038;50.166;18.908;2023-10-08T01:23:44;97684.56;;;12.59;89.96
21401;BME280;18038;50.166;18.908;2023-10-08T01:26:53;97692.63;;;12.53;90.47
21401;BME280;18038;50.166;18.908;2023-10-08T01:30:02;97688.69;;;12.55;90.42
21401;BME280;18038;50.166;18.908;2023-10-08T01:33:23;97681.75;;;12.47;90.86
21401;BME280;18038;50.166;18.908;2023-10-08T01:36:35;97675.97;;;12.51;91.34
21401;BME280;18038;50.166;18.908;2023-10-08T01:39:47;97681.69;;;12.54;91.05
21401;BME280;18038;50.166;18.908;2023-10-08T01:42:55;97691.25;;;12.37;91.20
21401;BME280;18038;50.166;18.908;2023-10-08T01:46:19;97702.03;;;12.23;91.80
21401;BME280;18038;50.166;18.908;2023-10-08T01:49:27;97688.34;;;12.07;92.54
21401;BME280;18038;50.166;18.908;2023-10-08T01:52:37;97698.47;;;11.91;93.34
21401;BME280;18038;50.166;18.908;2023-10-08T01:55:48;97704.88;;;11.83;93.31
21401;BME280;18038;50.166;18.908;2023-10-08T01:58:57;97728.78;;;11.52;93.11
21401;BME280;18038;50.166;18.908;2023-10-08T02:02:06;97735.19;;;10.98;89.56
21401;BME280;18038;50.166;18.908;2023-10-08T02:05:13;97725.75;;;10.27;89.34
21401;BME280;18038;50.166;18.908;2023-10-08T02:08:23;97727.09;;;10.03;90.16
21401;BME280;18038;50.166;18.908;2023-10-08T02:11:41;97730.09;;;9.86;91.31
21401;BME280;18038;50.166;18.908;2023-10-08T02:14:58;97730.69;;;9.82;91.51
21401;BME280;18038;50.166;18.908;2023-10-08T02:18:07;97730.81;;;9.67;91.62
21401;BME280;18038;50.166;18.908;2023-10-08T02:21:18;97733.97;;;9.49;91.77
21401;BME280;18038;50.166;18.908;2023-10-08T02:24:25;97739.34;;;9.28;92.85
21401;BME280;18038;50.166;18.908;2023-10-08T02:27:37;97736.19;;;9.17;93.77
21401;BME280;18038;50.166;18.908;2023-10-08T02:30:47;97729.69;;;8.98;94.27
21401;BME280;18038;50.166;18.908;2023-10-08T02:33:56;97743.81;;;8.99;94.45
21401;BME280;18038;50.166;18.908;2023-10-08T02:37:03;97740.38;;;9.05;94.83
21401;BME280;18038;50.166;18.908;2023-10-08T02:40:18;97744.50;;;8.86;94.53
21401;BME280;18038;50.166;18.908;2023-10-08T02:43:33;97757.56;;;8.81;95.81
21401;BME280;18038;50.166;18.908;2023-10-08T02:46:42;97747.84;;;8.73;95.40
21401;BME280;18038;50.166;18.908;2023-10-08T02:49:51;97749.81;;;8.65;95.19
21401;BME280;18038;50.166;18.908;2023-10-08T02:52:59;97754.19;;;8.51;94.30
21401;BME280;18038;50.166;18.908;2023-10-08T02:56:13;97762.47;;;8.41;94.18
21401;BME280;18038;50.166;18.908;2023-10-08T02:59:31;97778.38;;;8.35;95.29
21401;BME280;18038;50.166;18.908;2023-10-08T03:02:45;97791.56;;;8.28;95.47
21401;BME280;18038;50.166;18.908;2023-10-08T03:05:54;97798.91;;;8.26;95.98
21401;BME280;18038;50.166;18.908;2023-10-08T03:09:02;97788.09;;;8.13;96.08
21401;BME280;18038;50.166;18.908;2023-10-08T03:12:13;97812.78;;;8.06;96.60
21401;BME280;18038;50.166;18.908;2023-10-08T03:15:23;97812.59;;;7.93;96.63
21401;BME280;18038;50.166;18.908;2023-10-08T03:18:42;97820.09;;;7.89;96.85
21401;BME280;18038;50.166;18.908;2023-10-08T03:21:54;97811.13;;;7.91;99.08
21401;BME280;18038;50.166;18.908;2023-10-08T03:25:03;97805.81;;;7.91;99.73
21401;BME280;18038;50.166;18.908;2023-10-08T03:28:20;97802.13;;;7.92;99.47
21401;BME280;18038;50.166;18.908;2023-10-08T03:31:35;97810.13;;;7.77;98.76
21401;BME280;18038;50.166;18.908;2023-10-08T03:34:57;97825.88;;;7.78;98.38
21401;BME280;18038;50.166;18.908;2023-10-08T03:38:05;97864.41;;;7.82;98.65
21401;BME280;18038;50.166;18.908;2023-10-08T03:41:32;97864.66;;;7.73;98.70
21401;BME280;18038;50.166;18.908;2023-10-08T03:44:52;97875.09;;;7.74;98.78
21401;BME280;18038;50.166;18.908;2023-10-08T03:48:03;97855.03;;;7.72;98.52
21401;BME280;18038;50.166;18.908;2023-10-08T03:51:25;97857.75;;;7.63;97.90
21401;BME280;18038;50.166;18.908;2023-10-08T03:54:48;97875.81;;;7.68;98.45
21401;BME280;18038;50.166;18.908;2023-10-08T03:58:09;97890.84;;;7.61;98.38
21401;BME280;18038;50.166;18.908;2023-10-08T04:01:31;97902.75;;;7.65;99.07
21401;BME280;18038;50.166;18.908;2023-10-08T04:04:42;97910.94;;;7.63;99.17
21401;BME280;18038;50.166;18.908;2023-10-08T04:08:00;97905.25;;;7.43;98.44
21401;BME280;18038;50.166;18.908;2023-10-08T04:11:50;97913.75;;;7.39;99.30
21401;BME280;18038;50.166;18.908;2023-10-08T04:15:03;97915.09;;;7.35;98.38
21401;BME280;18038;50.166;18.908;2023-10-08T04:18:12;97947.97;;;7.34;98.63
21401;BME280;18038;50.166;18.908;2023-10-08T04:21:22;97954.19;;;7.26;98.47
21401;BME280;18038;50.166;18.908;2023-10-08T04:24:32;97960.81;;;7.22;97.90
21401;BME280;18038;50.166;18.908;2023-10-08T04:27:42;97954.19;;;7.18;97.03
21401;BME280;18038;50.166;18.908;2023-10-08T04:30:54;97967.53;;;7.10;96.95
21401;BME280;18038;50.166;18.908;2023-10-08T04:34:18;97967.91;;;6.98;97.22
21401;BME280;18038;50.166;18.908;2023-10-08T04:37:31;97981.50;;;7.04;97.56
21401;BME280;18038;50.166;18.908;2023-10-08T04:40:38;97987.81;;;7.03;97.08
21401;BME280;18038;50.166;18.908;2023-10-08T04:43:55;97978.53;;;6.98;97.26
21401;BME280;18038;50.166;18.908;2023-10-08T04:47:08;97995.47;;;6.97;96.74
21401;BME280;18038;50.166;18.908;2023-10-08T04:50:36;98003.47;;;6.89;96.76
21401;BME280;18038;50.166;18.908;2023-10-08T04:53:51;98015.41;;;6.93;96.98
21401;BME280;18038;50.166;18.908;2023-10-08T04:57:00;98019.91;;;6.85;97.06
21401;BME280;18038;50.166;18.908;2023-10-08T05:00:17;98024.41;;;6.84;97.22
21401;BME280;18038;50.166;18.908;2023-10-08T05:03:46;98040.16;;;6.86;96.98
21401;BME280;18038;50.166;18.908;2023-10-08T05:07:07;98043.31;;;6.89;97.33
21401;BME280;18038;50.166;18.908;2023-10-08T05:10:36;98045.09;;;6.89;97.30
21401;BME280;18038;50.166;18.908;2023-10-08T05:14:07;98047.28;;;6.85;97.35
21401;BME280;18038;50.166;18.908;2023-10-08T05:17:22;98031.69;;;6.90;97.46
21401;BME280;18038;50.166;18.908;2023-10-08T05:20:38;98023.41;;;6.85;97.13
21401;BME280;18038;50.166;18.908;2023-10-08T05:24:07;98039.47;;;6.92;97.29
21401;BME280;18038;50.166;18.908;2023-10-08T05:27:29;98042.97;;;6.92;97.10
21401;BME280;18038;50.166;18.908;2023-10-08T05:31:07;98069.84;;;6.89;97.19
21401;BME280;18038;50.166;18.908;2023-10-08T05:34:31;98079.94;;;6.94;97.42
21401;BME280;18038;50.166;18.908;2023-10-08T05:37:47;98090.91;;;6.91;97.19
21401;BME280;18038;50.166;18.908;2023-10-08T05:40:57;98093.56;;;6.91;97.38
21401;BME280;18038;50.166;18.908;2023-10-08T05:44:35;98112.00;;;6.92;98.07
21401;BME280;18038;50.166;18.908;2023-10-08T05:47:43;98133.91;;;6.94;97.93
21401;BME280;18038;50.166;18.908;2023-10-08T05:51:14;98133.25;;;6.92;97.97
21401;BME280;18038;50.166;18.908;2023-10-08T05:54:38;98133.91;;;6.94;98.08
21401;BME280;18038;50.166;18.908;2023-10-08T05:58:04;98129.56;;;6.93;97.35
21401;BME280;18038;50.166;18.908;2023-10-08T06:01:31;98128.91;;;7.08;97.85
21401;BME280;18038;50.166;18.908;2023-10-08T06:04:45;98137.16;;;7.13;97.01
21401;BME280;18038;50.166;18.908;2023-10-08T06:08:13;98153.41;;;7.18;96.95
21401;BME280;18038;50.166;18.908;2023-10-08T06:11:26;98153.75;;;7.15;96.64
21401;BME280;18038;50.166;18.908;2023-10-08T06:14:59;98163.06;;;7.19;96.59
21401;BME280;18038;50.166;18.908;2023-10-08T06:18:37;98179.97;;;7.26;96.37
21401;BME280;18038;50.166;18.908;2023-10-08T06:21:47;98183.97;;;7.22;95.81
21401;BME280;18038;50.166;18.908;2023-10-08T06:24:55;98200.91;;;7.21;95.96
21401;BME280;18038;50.166;18.908;2023-10-08T06:28:20;98199.56;;;7.25;95.79
21401;BME280;18038;50.166;18.908;2023-10-08T06:31:30;98200.03;;;7.29;95.12
21401;BME280;18038;50.166;18.908;2023-10-08T06:34:42;98202.19;;;7.41;95.52
21401;BME280;18038;50.166;18.908;2023-10-08T06:37:50;98204.53;;;7.44;95.33
21401;BME280;18038;50.166;18.908;2023-10-08T06:41:05;98225.13;;;7.51;93.92
21401;BME280;18038;50.166;18.908;2023-10-08T06:44:30;98229.75;;;7.57;93.54
21401;BME280;18038;50.166;18.908;2023-10-08T06:47:38;98228.75;;;7.58;92.72
21401;BME280;18038;50.166;18.908;2023-10-08T06:50:50;98239.69;;;7.63;92.84
21401;BME280;18038;50.166;18.908;2023-10-08T06:54:08;98245.84;;;7.63;91.71
21401;BME280;18038;50.166;18.908;2023-10-08T06:57:44;98245.66;;;7.65;92.06
21401;BME280;18038;50.166;18.908;2023-10-08T07:00:52;98244.69;;;7.66;91.65
21401;BME280;18038;50.166;18.908;2023-10-08T07:04:15;98256.97;;;7.67;91.14
21401;BME280;18038;50.166;18.908;2023-10-08T07:07:35;98272.75;;;7.60;90.60
21401;BME280;18038;50.166;18.908;2023-10-08T07:11:00;98272.75;;;7.69;91.05
21401;BME280;18038;50.166;18.908;2023-10-08T07:14:11;98277.75;;;7.63;90.77
21401;BME280;18038;50.166;18.908;2023-10-08T07:17:26;98291.88;;;7.64;90.07
21401;BME280;18038;50.166;18.908;2023-10-08T07:20:59;98283.69;;;7.74;90.61
21401;BME280;18038;50.166;18.908;2023-10-08T07:24:34;98289.84;;;7.82;89.97
21401;BME280;18038;50.166;18.908;2023-10-08T07:27:55;98295.25;;;7.97;90.37
21401;BME280;18038;50.166;18.908;2023-10-08T07:31:13;98308.53;;;8.05;90.49
21401;BME280;18038;50.166;18.908;2023-10-08T07:34:54;98306.19;;;8.10;89.01
21401;BME280;18038;50.166;18.908;2023-10-08T07:38:20;98305.75;;;7.91;88.85
21401;BME280;18038;50.166;18.908;2023-10-08T07:41:33;98313.03;;;7.97;88.95
21401;BME280;18038;50.166;18.908;2023-10-08T07:44:42;98322.19;;;7.94;88.28
21401;BME280;18038;50.166;18.908;2023-10-08T07:47:51;98330.72;;;7.65;88.60
21401;BME280;18038;50.166;18.908;2023-10-08T07:51:00;98337.03;;;7.72;89.36
21401;BME280;18038;50.166;18.908;2023-10-08T07:54:07;98346.84;;;7.72;89.14
21401;BME280;18038;50.166;18.908;2023-10-08T07:57:23;98341.34;;;7.73;89.22
21401;BME280;18038;50.166;18.908;2023-10-08T08:00:34;98346.31;;;7.76;88.79
21401;BME280;18038;50.166;18.908;2023-10-08T08:03:43;98360.38;;;8.18;88.68
21401;BME280;18038;50.166;18.908;2023-10-08T08:06:53;98370.69;;;8.60;87.75
21401;BME280;18038;50.166;18.908;2023-10-08T08:10:09;98376.28;;;8.73;85.47
21401;BME280;18038;50.166;18.908;2023-10-08T08:14:02;98385.88;;;8.83;85.41
21401;BME280;18038;50.166;18.908;2023-10-08T08:17:21;98389.22;;;8.76;84.03
21401;BME280;18038;50.166;18.908;2023-10-08T08:20:29;98391.53;;;8.88;83.06
21401;BME280;18038;50.166;18.908;2023-10-08T08:23:45;98381.78;;;9.03;83.47
21401;BME280;18038;50.166;18.908;2023-10-08T08:27:01;98390.34;;;8.90;80.76
21401;BME280;18038;50.166;18.908;2023-10-08T08:30:22;98391.84;;;8.93;81.03
21401;BME280;18038;50.166;18.908;2023-10-08T08:33:31;98387.44;;;9.54;81.38
21401;BME280;18038;50.166;18.908;2023-10-08T08:36:57;98391.31;;;9.67;80.16
21401;BME280;18038;50.166;18.908;2023-10-08T08:40:06;98385.69;;;9.61;79.46
21401;BME280;18038;50.166;18.908;2023-10-08T08:43:30;98409.59;;;9.93;76.74
21401;BME280;18038;50.166;18.908;2023-10-08T08:46:51;98401.66;;;11.03;75.51
21401;BME280;18038;50.166;18.908;2023-10-08T08:50:08;98401.66;;;12.11;68.94
21401;BME280;18038;50.166;18.908;2023-10-08T08:53:23;98418.84;;;12.99;68.18
21401;BME280;18038;50.166;18.908;2023-10-08T08:56:41;98428.69;;;13.53;65.04
21401;BME280;18038;50.166;18.908;2023-10-08T09:00:22;98424.41;;;13.92;62.75
21401;BME280;18038;50.166;18.908;2023-10-08T09:04:08;98416.19;;;13.06;61.98
21401;BME280;18038;50.166;18.908;2023-10-08T09:07:28;98430.34;;;12.23;63.40
21401;BME280;18038;50.166;18.908;2023-10-08T09:11:00;98444.28;;;11.26;64.05
21401;BME280;18038;50.166;18.908;2023-10-08T09:14:15;98444.22;;;11.20;65.76
21401;BME280;18038;50.166;18.908;2023-10-08T09:17:25;98444.47;;;12.39;61.09
21401;BME280;18038;50.166;18.908;2023-10-08T09:20:38;98450.59;;;12.96;59.66
21401;BME280;18038;50.166;18.908;2023-10-08T09:23:54;98436.09;;;13.58;57.30
21401;BME280;18038;50.166;18.908;2023-10-08T09:27:02;98447.94;;;14.30;54.32
21401;BME280;18038;50.166;18.908;2023-10-08T09:30:13;98455.81;;;13.98;50.11
21401;BME280;18038;50.166;18.908;2023-10-08T09:33:23;98450.66;;;15.08;49.44
21401;BME280;18038;50.166;18.908;2023-10-08T09:36:34;98453.19;;;14.97;46.99
21401;BME280;18038;50.166;18.908;2023-10-08T09:39:44;98450.63;;;14.30;43.95
21401;BME280;18038;50.166;18.908;2023-10-08T09:42:55;98465.50;;;13.93;47.79
21401;BME280;18038;50.166;18.908;2023-10-08T09:46:09;98464.41;;;13.54;46.29
21401;BME280;18038;50.166;18.908;2023-10-08T09:49:30;98471.78;;;13.39;47.41
21401;BME280;18038;50.166;18.908;2023-10-08T09:52:47;98470.47;;;14.16;46.04
21401;BME280;18038;50.166;18.908;2023-10-08T09:56:13;98464.66;;;14.32;41.22
21401;BME280;18038;50.166;18.908;2023-10-08T09:59:22;98466.75;;;14.17;40.97
21401;BME280;18038;50.166;18.908;2023-10-08T10:02:32;98474.78;;;14.57;39.40
21401;BME280;18038;50.166;18.908;2023-10-08T10:05:42;98482.09;;;15.08;38.94
21401;BME280;18038;50.166;18.908;2023-10-08T10:08:56;98479.56;;;14.21;38.64
21401;BME280;18038;50.166;18.908;2023-10-08T10:12:11;98490.91;;;14.57;38.52
21401;BME280;18038;50.166;18.908;2023-10-08T10:15:21;98498.88;;;15.03;39.42
21401;BME280;18038;50.166;18.908;2023-10-08T10:18:34;98497.75;;;15.24;37.71
21401;BME280;18038;50.166;18.908;2023-10-08T10:21:42;98515.53;;;15.32;36.22
21401;BME280;18038;50.166;18.908;2023-10-08T10:24:54;98494.09;;;15.12;37.00
21401;BME280;18038;50.166;18.908;2023-10-08T10:28:23;98509.63;;;15.10;35.15
21401;BME280;18038;50.166;18.908;2023-10-08T10:31:34;98511.03;;;15.19;35.15
21401;BME280;18038;50.166;18.908;2023-10-08T10:34:43;98505.16;;;14.57;36.85
21401;BME280;18038;50.166;18.908;2023-10-08T10:37:51;98502.06;;;14.00;38.29
21401;BME280;18038;50.166;18.908;2023-10-08T10:41:03;98521.00;;;13.79;35.95
21401;BME280;18038;50.166;18.908;2023-10-08T10:44:13;98519.38;;;13.78;36.03
21401;BME280;18038;50.166;18.908;2023-10-08T10:47:26;98507.44;;;14.27;35.33
21401;BME280;18038;50.166;18.908;2023-10-08T10:50:47;98519.22;;;14.13;34.79
21401;BME280;18038;50.166;18.908;2023-10-08T10:54:13;98512.59;;;14.22;35.00
21401;BME280;18038;50.166;18.908;2023-10-08T10:57:30;98514.50;;;14.28;35.81
21401;BME280;18038;50.166;18.908;2023-10-08T11:00:42;98525.00;;;13.96;35.81
21401;BME280;18038;50.166;18.908;2023-10-08T11:04:01;98529.16;;;14.32;36.12
21401;BME280;18038;50.166;18.908;2023-10-08T11:07:10;98537.19;;;14.06;34.49
21401;BME280;18038;50.166;18.908;2023-10-08T11:10:20;98527.09;;;14.21;35.53
21401;BME280;18038;50.166;18.908;2023-10-08T11:13:33;98537.63;;;14.42;36.03
21401;BME280;18038;50.166;18.908;2023-10-08T11:16:44;98537.63;;;14.29;35.89
21401;BME280;18038;50.166;18.908;2023-10-08T11:19:56;98543.22;;;14.34;34.88
21401;BME280;18038;50.166;18.908;2023-10-08T11:23:03;98538.66;;;14.48;35.39
21401;BME280;18038;50.166;18.908;2023-10-08T11:26:24;98542.19;;;14.42;35.38
21401;BME280;18038;50.166;18.908;2023-10-08T11:29:42;98536.59;;;14.43;35.44
21401;BME280;18038;50.166;18.908;2023-10-08T11:32:51;98540.94;;;14.18;34.88
21401;BME280;18038;50.166;18.908;2023-10-08T11:36:01;98539.28;;;14.30;35.21
21401;BME280;18038;50.166;18.908;2023-10-08T11:39:12;98541.53;;;14.00;32.74
21401;BME280;18038;50.166;18.908;2023-10-08T11:42:25;98528.13;;;13.45;32.26
21401;BME280;18038;50.166;18.908;2023-10-08T11:45:47;98551.88;;;13.42;32.15
21401;BME280;18038;50.166;18.908;2023-10-08T11:48:55;98547.38;;;13.55;33.37
21401;BME280;18038;50.166;18.908;2023-10-08T11:52:09;98542.66;;;13.71;33.34
21401;BME280;18038;50.166;18.908;2023-10-08T11:55:19;98545.59;;;13.83;34.11
21401;BME280;18038;50.166;18.908;2023-10-08T11:58:31;98555.78;;;13.94;34.33
21401;BME280;18038;50.166;18.908;2023-10-08T12:01:46;98563.50;;;13.62;34.21
21401;BME280;18038;50.166;18.908;2023-10-08T12:04:55;98565.97;;;13.57;34.01
21401;BME280;18038;50.166;18.908;2023-10-08T12:08:04;98555.22;;;13.64;35.06
21401;BME280;18038;50.166;18.908;2023-10-08T12:11:14;98561.50;;;13.29;34.07
21401;BME280;18038;50.166;18.908;2023-10-08T12:14:21;98562.56;;;13.35;33.54
21401;BME280;18038;50.166;18.908;2023-10-08T12:17:37;98565.78;;;13.17;33.88
21401;BME280;18038;50.166;18.908;2023-10-08T12:20:46;98579.16;;;13.10;34.05
21401;BME280;18038;50.166;18.908;2023-10-08T12:23:57;98580.03;;;12.89;32.65
21401;BME280;18038;50.166;18.908;2023-10-08T12:27:09;98584.09;;;12.79;33.18
21401;BME280;18038;50.166;18.908;2023-10-08T12:30:18;98577.59;;;12.66;33.22
21401;BME280;18038;50.166;18.908;2023-10-08T12:33:39;98578.03;;;12.70;34.20
21401;BME280;18038;50.166;18.908;2023-10-08T12:36:48;98590.66;;;12.48;33.19
21401;BME280;18038;50.166;18.908;2023-10-08T12:39:55;98590.78;;;12.68;32.89
21401;BME280;18038;50.166;18.908;2023-10-08T12:43:18;98585.16;;;12.56;33.41
21401;BME280;18038;50.166;18.908;2023-10-08T12:46:26;98593.63;;;12.60;34.01
21401;BME280;18038;50.166;18.908;2023-10-08T12:49:38;98598.44;;;12.43;34.68
21401;BME280;18038;50.166;18.908;2023-10-08T12:52:46;98603.31;;;12.39;34.81
21401;BME280;18038;50.166;18.908;2023-10-08T12:56:00;98596.19;;;12.03;35.20
21401;BME280;18038;50.166;18.908;2023-10-08T12:59:10;98586.41;;;11.74;36.57
21401;BME280;18038;50.166;18.908;2023-10-08T13:02:29;98599.25;;;11.64;36.85
21401;BME280;18038;50.166;18.908;2023-10-08T13:05:41;98600.56;;;11.68;38.20
21401;BME280;18038;50.166;18.908;2023-10-08T13:08:51;98604.22;;;11.67;36.82
21401;BME280;18038;50.166;18.908;2023-10-08T13:12:23;98604.53;;;11.43;36.91
21401;BME280;18038;50.166;18.908;2023-10-08T13:15:36;98605.19;;;11.00;36.67
21401;BME280;18038;50.166;18.908;2023-10-08T13:18:45;98606.81;;;11.01;36.68
21401;BME280;18038;50.166;18.908;2023-10-08T13:21:56;98618.09;;;10.97;37.44
21401;BME280;18038;50.166;18.908;2023-10-08T13:25:04;98610.41;;;10.93;37.76
21401;BME280;18038;50.166;18.908;2023-10-08T13:28:13;98617.44;;;10.94;37.51
21401;BME280;18038;50.166;18.908;2023-10-08T13:31:21;98620.69;;;10.67;37.17
21401;BME280;18038;50.166;18.908;2023-10-08T13:34:35;98628.66;;;10.29;37.88
21401;BME280;18038;50.166;18.908;2023-10-08T13:37:45;98638.28;;;10.38;38.67
21401;BME280;18038;50.166;18.908;2023-10-08T13:40:54;98638.28;;;10.38;37.70
21401;BME280;18038;50.166;18.908;2023-10-08T13:44:25;98646.31;;;10.30;38.09
21401;BME280;18038;50.166;18.908;2023-10-08T13:47:35;98646.94;;;10.17;38.36
21401;BME280;18038;50.166;18.908;2023-10-08T13:50:44;98647.50;;;10.04;38.52
21401;BME280;18038;50.166;18.908;2023-10-08T13:53:56;98651.25;;;9.87;38.45
21401;BME280;18038;50.166;18.908;2023-10-08T13:57:10;98646.75;;;9.88;38.36
21401;BME280;18038;50.166;18.908;2023-10-08T14:00:20;98651.47;;;9.77;37.84
21401;BME280;18038;50.166;18.908;2023-10-08T14:03:30;98656.13;;;9.83;39.00
21401;BME280;18038;50.166;18.908;2023-10-08T14:06:39;98659.47;;;9.85;39.24
21401;BME280;18038;50.166;18.908;2023-10-08T14:09:55;98660.72;;;9.58;38.97
21401;BME280;18038;50.166;18.908;2023-10-08T14:13:06;98657.66;;;9.38;39.47
21401;BME280;18038;50.166;18.908;2023-10-08T14:16:14;98652.13;;;9.40;39.42
21401;BME280;18038;50.166;18.908;2023-10-08T14:19:22;98661.75;;;9.57;39.01
21401;BME280;18038;50.166;18.908;2023-10-08T14:22:32;98669.53;;;9.59;38.25
21401;BME280;18038;50.166;18.908;2023-10-08T14:25:46;98666.13;;;9.42;38.54
21401;BME280;18038;50.166;18.908;2023-10-08T14:28:55;98672.25;;;9.51;39.51
21401;BME280;18038;50.166;18.908;2023-10-08T14:32:12;98672.25;;;9.51;39.59
21401;BME280;18038;50.166;18.908;2023-10-08T14:35:19;98677.25;;;9.54;39.73
21401;BME280;18038;50.166;18.908;2023-10-08T14:38:40;98681.63;;;9.47;39.89
21401;BME280;18038;50.166;18.908;2023-10-08T14:42:09;98678.13;;;9.46;40.68
21401;BME280;18038;50.166;18.908;2023-10-08T14:45:35;98692.78;;;9.42;40.51
21401;BME280;18038;50.166;18.908;2023-10-08T14:48:52;98711.31;;;9.35;40.67
21401;BME280;18038;50.166;18.908;2023-10-08T14:52:33;98703.00;;;9.14;41.35
21401;BME280;18038;50.166;18.908;2023-10-08T14:55:40;98712.50;;;9.00;41.44
21401;BME280;18038;50.166;18.908;2023-10-08T14:58:52;98705.00;;;8.79;41.79
21401;BME280;18038;50.166;18.908;2023-10-08T15:02:01;98714.47;;;8.82;41.94
21401;BME280;18038;50.166;18.908;2023-10-08T15:05:18;98720.97;;;8.79;42.63
21401;BME280;18038;50.166;18.908;2023-10-08T15:08:51;98718.50;;;8.77;43.69
21401;BME280;18038;50.166;18.908;2023-10-08T15:11:58;98717.81;;;8.84;43.28
21401;BME280;18038;50.166;18.908;2023-10-08T15:15:10;98721.50;;;8.83;43.47
21401;BME280;18038;50.166;18.908;2023-10-08T15:18:20;98719.66;;;8.83;43.94
21401;BME280;18038;50.166;18.908;2023-10-08T15:21:41;98732.16;;;8.74;43.79
21401;BME280;18038;50.166;18.908;2023-10-08T15:24:49;98744.44;;;8.59;43.55
21401;BME280;18038;50.166;18.908;2023-10-08T15:27:56;98748.94;;;8.59;43.91
21401;BME280;18038;50.166;18.908;2023-10-08T15:31:08;98752.91;;;8.54;43.88
21401;BME280;18038;50.166;18.908;2023-10-08T15:34:17;98762.41;;;8.49;44.25
21401;BME280;18038;50.166;18.908;2023-10-08T15:37:42;98776.03;;;8.38;44.57
21401;BME280;18038;50.166;18.908;2023-10-08T15:40:50;98771.19;;;8.33;45.36
21401;BME280;18038;50.166;18.908;2023-10-08T15:43:59;98769.47;;;8.24;45.32
21401;BME280;18038;50.166;18.908;2023-10-08T15:47:09;98767.81;;;8.23;45.12
21401;BME280;18038;50.166;18.908;2023-10-08T15:50:21;98755.84;;;8.19;45.43
21401;BME280;18038;50.166;18.908;2023-10-08T15:53:36;98760.94;;;8.04;45.66
21401;BME280;18038;50.166;18.908;2023-10-08T15:56:44;98776.53;;;7.99;46.12
21401;BME280;18038;50.166;18.908;2023-10-08T16:00:00;98772.69;;;7.93;46.75
21401;BME280;18038;50.166;18.908;2023-10-08T16:03:12;98778.53;;;7.97;47.48
21401;BME280;18038;50.166;18.908;2023-10-08T16:06:22;98771.88;;;7.93;47.28
21401;BME280;18038;50.166;18.908;2023-10-08T16:09:30;98773.50;;;7.85;47.51
21401;BME280;18038;50.166;18.908;2023-10-08T16:12:38;98784.41;;;7.74;47.83
21401;BME280;18038;50.166;18.908;2023-10-08T16:15:46;98786.03;;;7.67;47.60
21401;BME280;18038;50.166;18.908;2023-10-08T16:18:56;98784.84;;;7.61;48.06
21401;BME280;18038;50.166;18.908;2023-10-08T16:22:06;98787.31;;;7.63;48.58
21401;BME280;18038;50.166;18.908;2023-10-08T16:25:14;98799.75;;;7.54;49.21
21401;BME280;18038;50.166;18.908;2023-10-08T16:28:22;98792.22;;;7.50;49.30
21401;BME280;18038;50.166;18.908;2023-10-08T16:31:30;98806.19;;;7.52;49.65
21401;BME280;18038;50.166;18.908;2023-10-08T16:34:48;98811.09;;;7.38;50.17
21401;BME280;18038;50.166;18.908;2023-10-08T16:37:57;98821.13;;;7.27;50.78
21401;BME280;18038;50.166;18.908;2023-10-08T16:41:05;98822.47;;;7.13;51.13
21401;BME280;18038;50.166;18.908;2023-10-08T16:44:13;98832.00;;;6.97;51.81
21401;BME280;18038;50.166;18.908;2023-10-08T16:47:22;98838.94;;;6.81;53.25
21401;BME280;18038;50.166;18.908;2023-10-08T16:50:31;98832.03;;;6.70;53.97
21401;BME280;18038;50.166;18.908;2023-10-08T16:53:40;98839.41;;;6.58;54.58
21401;BME280;18038;50.166;18.908;2023-10-08T16:56:49;98834.97;;;6.49;54.71
21401;BME280;18038;50.166;18.908;2023-10-08T17:00:11;98845.50;;;6.41;55.29
21401;BME280;18038;50.166;18.908;2023-10-08T17:03:19;98853.88;;;6.36;55.20